F/V Ludivine Allison — FGQS — position and weather

sailwx.info

Track history (hours):
 
Tides and Currents Weather Stations Pressure Air Temp Water Temp Dewpoint Dewpoint Depression Visibility Wind Speed Wind Dir Waves Ship Positions

F/V Ludivine Allison

Last reported at 2017-Dec-10 19:28 UTC. Time now 2017-Dec-14 17:14 UTC.
Position N 43°19' W 001°55'.

Length 22 m; draft 4 m.

Type: Fishing. MMSI: 228119000.

Date/timePositionNaut miles runAvg speedWind from/ knotsBaromVisibWave heightAir tempDewpointWater temp
2017-Dec-10 19:28N 43°19' W 001°55'2 3.6
2017-Dec-10 19:00N 43°21' W 001°55'5 9.6
2017-Dec-10 18:30N 43°26' W 001°54'4 9.0
2017-Dec-10 18:00N 43°30' W 001°53'4 8.7
2017-Dec-10 17:30N 43°34' W 001°53'4 8.5
2017-Dec-10 17:00N 43°39' W 001°52'4 8.5
2017-Dec-10 16:30N 43°43' W 001°52'2 3.9
2017-Dec-10 16:00N 43°45' W 001°53'1 2.9
2017-Dec-10 15:30N 43°43' W 001°52'2 3.4
2017-Dec-10 15:00N 43°42' W 001°52'2 3.8
2017-Dec-10 14:30N 43°40' W 001°51'1 1.2
2017-Dec-10 14:00N 43°40' W 001°50'2 3.5
2017-Dec-10 13:30N 43°41' W 001°48'2 3.5
2017-Dec-10 13:00N 43°42' W 001°46'2 3.6
2017-Dec-10 12:30N 43°43' W 001°46'2 3.5
2017-Dec-10 12:00N 43°45' W 001°46'2 3.3
2017-Dec-10 11:30N 43°47' W 001°46'2 3.5
2017-Dec-10 11:00N 43°48' W 001°48'2 3.4
2017-Dec-10 10:30N 43°47' W 001°50'2 3.6
2017-Dec-10 10:00N 43°46' W 001°52'2 3.8
2017-Dec-10 09:30N 43°45' W 001°54'1 1.9
2017-Dec-10 09:00N 43°44' W 001°55'2 3.5
2017-Dec-10 08:30N 43°43' W 001°54'2 3.5
2017-Dec-10 08:00N 43°41' W 001°53'2 3.4
2017-Dec-10 07:30N 43°41' W 001°51'2 3.5
2017-Dec-10 07:00N 43°41' W 001°48'2 3.5
2017-Dec-10 06:30N 43°42' W 001°46'2 3.7
2017-Dec-10 06:00N 43°43' W 001°44'2 3.6
2017-Dec-10 05:30N 43°43' W 001°42'2 3.8
2017-Dec-10 05:00N 43°44' W 001°39'1 1.7
2017-Dec-10 04:30N 43°45' W 001°39'2 3.4
2017-Dec-10 04:00N 43°46' W 001°37'2 3.5
2017-Dec-10 03:30N 43°47' W 001°36'2 3.4
2017-Dec-10 03:00N 43°49' W 001°35'2 3.4
2017-Dec-10 02:30N 43°50' W 001°34'2 3.4
2017-Dec-10 02:00N 43°52' W 001°33'2 3.5
2017-Dec-10 01:30N 43°53' W 001°31'2 3.4
2017-Dec-10 01:00N 43°55' W 001°30'2 3.4
2017-Dec-10 00:30N 43°56' W 001°29'1 2.9
2017-Dec-10 00:00N 43°58' W 001°28'1 2.4
2017-Dec-09 23:30N 43°59' W 001°27'2 3.7
2017-Dec-09 23:00N 44°00' W 001°27'2 3.9
2017-Dec-09 22:30N 44°02' W 001°26'2 3.7
2017-Dec-09 22:00N 44°04' W 001°26'2 3.8
2017-Dec-09 21:30N 44°06' W 001°26'2 3.8
2017-Dec-09 21:00N 44°08' W 001°25'2 3.8
2017-Dec-09 20:30N 44°10' W 001°25'2 3.8
2017-Dec-09 20:00N 44°12' W 001°24'2 3.8
2017-Dec-09 19:30N 44°13' W 001°23'2 3.2
2017-Dec-09 19:00N 44°15' W 001°23'2 3.2
2017-Dec-09 18:30N 44°17' W 001°23'2 3.8
2017-Dec-09 18:00N 44°18' W 001°22'1 2.3
2017-Dec-09 17:30N 44°19' W 001°24'2 3.8
2017-Dec-09 16:59N 44°17' W 001°24'2 4.0
2017-Dec-09 16:30N 44°15' W 001°24'2 3.9
2017-Dec-09 15:59N 44°13' W 001°25'2 4.0
2017-Dec-09 15:30N 44°11' W 001°25'0 0.8
2017-Dec-09 15:00N 44°12' W 001°24'2 3.6
2017-Dec-09 14:30N 44°14' W 001°24'2 3.5
2017-Dec-09 14:00N 44°15' W 001°24'2 3.6
2017-Dec-09 13:30N 44°17' W 001°24'2 3.5
2017-Dec-09 13:00N 44°19' W 001°25'2 3.6
2017-Dec-09 12:28N 44°21' W 001°24'2 3.6
2017-Dec-09 11:58N 44°22' W 001°23'2 3.6
2017-Dec-09 11:30N 44°24' W 001°24'2 3.6
2017-Dec-09 11:00N 44°26' W 001°24'2 3.9
2017-Dec-09 10:30N 44°28' W 001°24'1 2.3
2017-Dec-09 10:00N 44°29' W 001°24'2 3.4
2017-Dec-09 09:30N 44°31' W 001°24'2 3.4
2017-Dec-09 09:00N 44°32' W 001°23'2 3.3
2017-Dec-09 08:30N 44°34' W 001°23'2 3.4
2017-Dec-09 08:00N 44°36' W 001°23'2 3.4
2017-Dec-09 07:30N 44°37' W 001°23'2 3.3
2017-Dec-09 07:00N 44°39' W 001°23'2 3.3
2017-Dec-09 06:30N 44°40' W 001°25'2 4.1
2017-Dec-09 06:00N 44°40' W 001°28'1 2.0
2017-Dec-09 05:30N 44°40' W 001°30'2 3.4
2017-Dec-09 05:00N 44°39' W 001°31'2 3.6
2017-Dec-09 04:30N 44°38' W 001°34'2 3.2
2017-Dec-09 04:00N 44°36' W 001°34'2 3.4
2017-Dec-09 03:30N 44°35' W 001°35'2 3.4
2017-Dec-09 03:00N 44°33' W 001°35'2 3.4
2017-Dec-09 02:30N 44°31' W 001°35'2 3.5
2017-Dec-09 02:00N 44°30' W 001°35'2 3.5
2017-Dec-09 01:30N 44°28' W 001°36'2 4.1
2017-Dec-09 01:00N 44°26' W 001°36'1 2.4
2017-Dec-09 00:30N 44°25' W 001°35'2 3.5
2017-Dec-08 23:59N 44°23' W 001°35'2 3.5
2017-Dec-08 23:29N 44°21' W 001°35'2 3.5
2017-Dec-08 23:00N 44°19' W 001°35'2 3.4
2017-Dec-08 22:30N 44°18' W 001°35'2 3.5
2017-Dec-08 22:00N 44°16' W 001°36'2 3.6
2017-Dec-08 21:30N 44°14' W 001°36'2 3.5
2017-Dec-08 21:00N 44°12' W 001°36'2 3.6
2017-Dec-08 20:29N 44°11' W 001°37'2 3.4
2017-Dec-08 20:00N 44°09' W 001°38'2 3.4
2017-Dec-08 19:30N 44°07' W 001°37'2 3.9
2017-Dec-08 19:00N 44°05' W 001°37'1 1.5
2017-Dec-08 18:30N 44°05' W 001°37'3 3.5
2017-Dec-08 17:35N 44°07' W 001°34'0 3.7
2017-Dec-08 17:30N 44°07' W 001°34'2 3.6
2017-Dec-08 17:00N 44°08' W 001°32'2 3.5
2017-Dec-08 16:30N 44°10' W 001°30'2 3.4
2017-Dec-08 16:00N 44°12' W 001°30'2 3.5
2017-Dec-08 15:29N 44°13' W 001°29'2 3.6
2017-Dec-08 14:59N 44°15' W 001°29'2 3.5
2017-Dec-08 14:30N 44°17' W 001°29'2 3.6
2017-Dec-08 14:00N 44°19' W 001°29'2 3.9
2017-Dec-08 13:30N 44°20' W 001°31'1 1.6
2017-Dec-08 13:00N 44°20' W 001°32'2 3.5
2017-Dec-08 12:28N 44°20' W 001°35'2 3.4
2017-Dec-08 12:00N 44°18' W 001°36'2 3.5
2017-Dec-08 11:30N 44°17' W 001°37'2 3.5
2017-Dec-08 10:59N 44°15' W 001°38'2 3.7
2017-Dec-08 10:30N 44°13' W 001°38'1 2.5
2017-Dec-08 10:00N 44°12' W 001°38'1 2.7
2017-Dec-08 09:30N 44°12' W 001°40'2 3.3
2017-Dec-08 08:59N 44°12' W 001°42'2 3.4
2017-Dec-08 08:30N 44°12' W 001°44'2 3.4
2017-Dec-08 08:00N 44°11' W 001°47'2 3.4
2017-Dec-08 07:30N 44°11' W 001°49'2 3.4
2017-Dec-08 07:00N 44°11' W 001°52'2 3.4
2017-Dec-08 06:30N 44°11' W 001°54'2 3.7
2017-Dec-08 06:00N 44°12' W 001°56'1 2.9
2017-Dec-08 05:30N 44°12' W 001°58'1 1.8
2017-Dec-08 05:00N 44°12' W 001°57'2 3.4
2017-Dec-08 04:30N 44°12' W 001°55'2 3.5
2017-Dec-08 03:59N 44°13' W 001°52'2 3.5
2017-Dec-08 03:30N 44°13' W 001°50'2 3.5
2017-Dec-08 03:00N 44°12' W 001°48'2 3.3
2017-Dec-08 02:30N 44°12' W 001°45'2 3.4
2017-Dec-08 02:00N 44°12' W 001°43'2 3.4
2017-Dec-08 01:30N 44°12' W 001°41'2 3.7
2017-Dec-08 01:00N 44°12' W 001°38'0 0.7
2017-Dec-08 00:30N 44°12' W 001°38'2 3.8
2017-Dec-08 00:00N 44°11' W 001°40'2 3.7
2017-Dec-07 23:30N 44°09' W 001°42'2 3.6
2017-Dec-07 23:00N 44°09' W 001°44'2 3.6
2017-Dec-07 22:30N 44°08' W 001°47'2 3.5
2017-Dec-07 22:00N 44°06' W 001°47'2 3.7
2017-Dec-07 21:30N 44°04' W 001°47'2 3.7
2017-Dec-07 21:00N 44°03' W 001°47'2 3.6
2017-Dec-07 20:30N 44°01' W 001°47'2 4.1
2017-Dec-07 20:00N 43°59' W 001°47'1 1.0
2017-Dec-07 19:30N 43°59' W 001°47'2 3.0
2017-Dec-07 19:00N 44°01' W 001°47'2 3.0
2017-Dec-07 18:30N 44°02' W 001°47'2 3.0
2017-Dec-07 18:00N 44°04' W 001°48'2 3.1
2017-Dec-07 17:30N 44°05' W 001°48'2 3.1
2017-Dec-07 17:00N 44°07' W 001°48'2 3.1
2017-Dec-07 16:30N 44°08' W 001°48'2 3.1
2017-Dec-07 16:00N 44°10' W 001°48'2 3.1
2017-Dec-07 15:30N 44°11' W 001°49'2 3.3
2017-Dec-07 15:00N 44°13' W 001°49'1 2.3
2017-Dec-07 14:30N 44°14' W 001°50'1 2.7
2017-Dec-07 14:00N 44°15' W 001°50'2 3.2
2017-Dec-07 13:30N 44°17' W 001°50'2 3.3
2017-Dec-07 13:00N 44°19' W 001°51'2 3.3
2017-Dec-07 12:30N 44°20' W 001°51'2 3.2
2017-Dec-07 12:00N 44°22' W 001°51'2 3.4
2017-Dec-07 11:30N 44°24' W 001°51'2 3.0
2017-Dec-07 11:00N 44°23' W 001°53'2 3.2
2017-Dec-07 10:30N 44°21' W 001°54'2 3.9
2017-Dec-07 10:00N 44°20' W 001°53'1 1.9
2017-Dec-07 09:30N 44°19' W 001°53'2 3.4
2017-Dec-07 09:00N 44°17' W 001°53'2 3.4
2017-Dec-07 08:30N 44°15' W 001°53'2 3.3
2017-Dec-07 08:00N 44°14' W 001°53'2 3.3
2017-Dec-07 07:30N 44°12' W 001°54'2 3.4
2017-Dec-07 07:00N 44°10' W 001°54'2 3.3
2017-Dec-07 06:30N 44°09' W 001°54'2 3.4
2017-Dec-07 06:00N 44°07' W 001°54'2 3.9
2017-Dec-07 05:30N 44°05' W 001°54'3 6.9
2017-Dec-07 05:00N 44°01' W 001°54'5 9.8
2017-Dec-07 04:30N 43°57' W 001°54'510.0
2017-Dec-07 04:00N 43°52' W 001°55'510.0
2017-Dec-07 03:30N 43°47' W 001°55'510.0
2017-Dec-07 03:00N 43°42' W 001°55'510.0
2017-Dec-07 02:30N 43°37' W 001°55'5 9.8
2017-Dec-07 02:00N 43°32' W 001°56'510.0
2017-Dec-07 01:30N 43°27' W 001°56'510.0
2017-Dec-07 01:00N 43°22' W 001°56'3 5.2
2017-Dec-07 00:30N 43°19' W 001°55'0 0.0
2017-Dec-07 00:00N 43°19' W 001°55'1 0.6
2017-Dec-06 23:11N 43°19' W 001°55'0 0.0
2017-Dec-06 21:25N 43°19' W 001°56'3 8.0
2017-Dec-06 21:00N 43°23' W 001°55'  
2017-Dec-02 09:38N 44°45' W 001°60'1 3.4
2017-Dec-02 09:27N 44°45' W 001°59'2 3.4
2017-Dec-02 08:51N 44°43' W 001°57'1 3.4
2017-Dec-02 08:30N 44°42' W 001°57'2 3.5
2017-Dec-02 07:52N 44°40' W 001°57'1 3.5
2017-Dec-02 07:30N 44°38' W 001°57'4 3.4
2017-Dec-02 06:29N 44°35' W 001°58'1 3.0
2017-Dec-02 06:00N 44°34' W 001°57'1 1.9
2017-Dec-02 05:30N 44°33' W 001°57'2 3.2
2017-Dec-02 04:59N 44°31' W 001°58'2 3.2
2017-Dec-02 04:30N 44°30' W 001°58'2 3.2
2017-Dec-02 04:00N 44°28' W 001°57'2 3.2
2017-Dec-02 03:30N 44°26' W 001°57'2 3.3
2017-Dec-02 03:00N 44°25' W 001°57'2 3.1
2017-Dec-02 02:17N 44°23' W 001°57'1 3.2
2017-Dec-02 01:57N 44°22' W 001°56'1 3.1
2017-Dec-02 01:30N 44°20' W 001°56'1 2.0
2017-Dec-02 01:00N 44°19' W 001°55'1 2.4
2017-Dec-02 00:30N 44°20' W 001°55'2 3.6
2017-Dec-01 23:58N 44°22' W 001°55'12 3.6
2017-Dec-01 20:44N 44°34' W 001°55'1 3.7
2017-Dec-01 20:30N 44°34' W 001°56'2 3.2
2017-Dec-01 20:00N 44°33' W 001°57'2 3.6
2017-Dec-01 19:22N 44°31' W 001°58'1 2.8
2017-Dec-01 19:00N 44°30' W 001°58'1 1.9
2017-Dec-01 18:30N 44°29' W 001°57'3 3.4
2017-Dec-01 17:33N 44°26' W 001°57'0 3.5
2017-Dec-01 17:30N 44°25' W 001°57'2 3.4
2017-Dec-01 16:57N 44°24' W 001°57'2 3.4
2017-Dec-01 16:24N 44°22' W 001°56'2 3.5
2017-Dec-01 15:53N 44°20' W 001°54'4 3.6
2017-Dec-01 14:39N 44°16' W 001°51'1 1.7
2017-Dec-01 14:15N 44°16' W 001°51'0 1.1
2017-Dec-01 14:00N 44°16' W 001°51'2 3.3
2017-Dec-01 13:30N 44°18' W 001°51'2 3.4
2017-Dec-01 12:53N 44°20' W 001°51'2 3.4
2017-Dec-01 12:26N 44°21' W 001°50'2 3.4
2017-Dec-01 11:58N 44°23' W 001°50'2 3.4
2017-Dec-01 11:29N 44°25' W 001°51'2 3.4
2017-Dec-01 11:00N 44°26' W 001°51'2 3.3
2017-Dec-01 10:30N 44°28' W 001°52'2 3.3
2017-Dec-01 09:51N 44°30' W 001°52'2 4.3
2017-Dec-01 09:26N 44°32' W 001°52'4 2.8
2017-Dec-01 08:07N 44°35' W 001°52'0 3.9
2017-Dec-01 08:00N 44°36' W 001°52'1 2.6
2017-Dec-01 07:30N 44°35' W 001°54'2 3.2
2017-Dec-01 07:00N 44°33' W 001°54'2 3.3
2017-Dec-01 06:31N 44°32' W 001°54'2 3.3
2017-Dec-01 05:59N 44°30' W 001°54'2 3.3
2017-Dec-01 05:31N 44°29' W 001°54'2 3.4
2017-Dec-01 05:00N 44°27' W 001°53'1 2.4
2017-Dec-01 04:29N 44°26' W 001°52'2 3.3
2017-Dec-01 04:00N 44°24' W 001°52'2 3.3
2017-Dec-01 03:29N 44°22' W 001°52'2 3.3
2017-Dec-01 02:59N 44°21' W 001°52'2 3.2
2017-Dec-01 02:31N 44°19' W 001°52'1 1.3
2017-Dec-01 02:00N 44°19' W 001°51'2 3.5
2017-Dec-01 01:29N 44°21' W 001°51'2 3.5
2017-Dec-01 00:54N 44°23' W 001°51'2 3.5
2017-Dec-01 00:25N 44°25' W 001°51'1 3.2
2017-Nov-30 23:59N 44°26' W 001°51'1 2.0
2017-Nov-30 23:30N 44°25' W 001°52'2 3.1
2017-Nov-30 22:59N 44°24' W 001°51'2 3.3
2017-Nov-30 22:25N 44°22' W 001°51'1 3.4
2017-Nov-30 22:00N 44°21' W 001°52'2 3.4
2017-Nov-30 21:27N 44°19' W 001°51'2 3.5
2017-Nov-30 20:59N 44°17' W 001°51'2 3.5
2017-Nov-30 20:30N 44°16' W 001°51'2 3.5
2017-Nov-30 20:00N 44°14' W 001°51'2 3.4
2017-Nov-30 19:30N 44°12' W 001°51'  
Track history (hours):
 
Tides and Currents Weather Stations Pressure Air Temp Water Temp Dewpoint Dewpoint Depression Visibility Wind Speed Wind Dir Waves Ship Positions

F/V Ludivine Allison

Last reported at 2017-Dec-10 19:28 UTC. Time now 2017-Dec-14 17:14 UTC.
Position N 43°19' W 001°55'.

Length 22 m; draft 4 m.

Type: Fishing. MMSI: 228119000.

Date/timePositionNaut miles runAvg speedWind from/ knotsBaromVisibWave heightAir tempDewpointWater temp
2017-Dec-10 19:28N 43°19' W 001°55'2 3.6
2017-Dec-10 19:00N 43°21' W 001°55'5 9.6
2017-Dec-10 18:30N 43°26' W 001°54'4 9.0
2017-Dec-10 18:00N 43°30' W 001°53'4 8.7
2017-Dec-10 17:30N 43°34' W 001°53'4 8.5
2017-Dec-10 17:00N 43°39' W 001°52'4 8.5
2017-Dec-10 16:30N 43°43' W 001°52'2 3.9
2017-Dec-10 16:00N 43°45' W 001°53'1 2.9
2017-Dec-10 15:30N 43°43' W 001°52'2 3.4
2017-Dec-10 15:00N 43°42' W 001°52'2 3.8
2017-Dec-10 14:30N 43°40' W 001°51'1 1.2
2017-Dec-10 14:00N 43°40' W 001°50'2 3.5
2017-Dec-10 13:30N 43°41' W 001°48'2 3.5
2017-Dec-10 13:00N 43°42' W 001°46'2 3.6
2017-Dec-10 12:30N 43°43' W 001°46'2 3.5
2017-Dec-10 12:00N 43°45' W 001°46'2 3.3
2017-Dec-10 11:30N 43°47' W 001°46'2 3.5
2017-Dec-10 11:00N 43°48' W 001°48'2 3.4
2017-Dec-10 10:30N 43°47' W 001°50'2 3.6
2017-Dec-10 10:00N 43°46' W 001°52'2 3.8
2017-Dec-10 09:30N 43°45' W 001°54'1 1.9
2017-Dec-10 09:00N 43°44' W 001°55'2 3.5
2017-Dec-10 08:30N 43°43' W 001°54'2 3.5
2017-Dec-10 08:00N 43°41' W 001°53'2 3.4
2017-Dec-10 07:30N 43°41' W 001°51'2 3.5
2017-Dec-10 07:00N 43°41' W 001°48'2 3.5
2017-Dec-10 06:30N 43°42' W 001°46'2 3.7
2017-Dec-10 06:00N 43°43' W 001°44'2 3.6
2017-Dec-10 05:30N 43°43' W 001°42'2 3.8
2017-Dec-10 05:00N 43°44' W 001°39'1 1.7
2017-Dec-10 04:30N 43°45' W 001°39'2 3.4
2017-Dec-10 04:00N 43°46' W 001°37'2 3.5
2017-Dec-10 03:30N 43°47' W 001°36'2 3.4
2017-Dec-10 03:00N 43°49' W 001°35'2 3.4
2017-Dec-10 02:30N 43°50' W 001°34'2 3.4
2017-Dec-10 02:00N 43°52' W 001°33'2 3.5
2017-Dec-10 01:30N 43°53' W 001°31'2 3.4
2017-Dec-10 01:00N 43°55' W 001°30'2 3.4
2017-Dec-10 00:30N 43°56' W 001°29'1 2.9
2017-Dec-10 00:00N 43°58' W 001°28'1 2.4
2017-Dec-09 23:30N 43°59' W 001°27'2 3.7
2017-Dec-09 23:00N 44°00' W 001°27'2 3.9
2017-Dec-09 22:30N 44°02' W 001°26'2 3.7
2017-Dec-09 22:00N 44°04' W 001°26'2 3.8
2017-Dec-09 21:30N 44°06' W 001°26'2 3.8
2017-Dec-09 21:00N 44°08' W 001°25'2 3.8
2017-Dec-09 20:30N 44°10' W 001°25'2 3.8
2017-Dec-09 20:00N 44°12' W 001°24'2 3.8
2017-Dec-09 19:30N 44°13' W 001°23'2 3.2
2017-Dec-09 19:00N 44°15' W 001°23'2 3.2
2017-Dec-09 18:30N 44°17' W 001°23'2 3.8
2017-Dec-09 18:00N 44°18' W 001°22'1 2.3
2017-Dec-09 17:30N 44°19' W 001°24'2 3.8
2017-Dec-09 16:59N 44°17' W 001°24'2 4.0
2017-Dec-09 16:30N 44°15' W 001°24'2 3.9
2017-Dec-09 15:59N 44°13' W 001°25'2 4.0
2017-Dec-09 15:30N 44°11' W 001°25'0 0.8
2017-Dec-09 15:00N 44°12' W 001°24'2 3.6
2017-Dec-09 14:30N 44°14' W 001°24'2 3.5
2017-Dec-09 14:00N 44°15' W 001°24'2 3.6
2017-Dec-09 13:30N 44°17' W 001°24'2 3.5
2017-Dec-09 13:00N 44°19' W 001°25'2 3.6
2017-Dec-09 12:28N 44°21' W 001°24'2 3.6
2017-Dec-09 11:58N 44°22' W 001°23'2 3.6
2017-Dec-09 11:30N 44°24' W 001°24'2 3.6
2017-Dec-09 11:00N 44°26' W 001°24'2 3.9
2017-Dec-09 10:30N 44°28' W 001°24'1 2.3
2017-Dec-09 10:00N 44°29' W 001°24'2 3.4
2017-Dec-09 09:30N 44°31' W 001°24'2 3.4
2017-Dec-09 09:00N 44°32' W 001°23'2 3.3
2017-Dec-09 08:30N 44°34' W 001°23'2 3.4
2017-Dec-09 08:00N 44°36' W 001°23'2 3.4
2017-Dec-09 07:30N 44°37' W 001°23'2 3.3
2017-Dec-09 07:00N 44°39' W 001°23'2 3.3
2017-Dec-09 06:30N 44°40' W 001°25'2 4.1
2017-Dec-09 06:00N 44°40' W 001°28'1 2.0
2017-Dec-09 05:30N 44°40' W 001°30'2 3.4
2017-Dec-09 05:00N 44°39' W 001°31'2 3.6
2017-Dec-09 04:30N 44°38' W 001°34'2 3.2
2017-Dec-09 04:00N 44°36' W 001°34'2 3.4
2017-Dec-09 03:30N 44°35' W 001°35'2 3.4
2017-Dec-09 03:00N 44°33' W 001°35'2 3.4
2017-Dec-09 02:30N 44°31' W 001°35'2 3.5
2017-Dec-09 02:00N 44°30' W 001°35'2 3.5
2017-Dec-09 01:30N 44°28' W 001°36'2 4.1
2017-Dec-09 01:00N 44°26' W 001°36'1 2.4
2017-Dec-09 00:30N 44°25' W 001°35'2 3.5
2017-Dec-08 23:59N 44°23' W 001°35'2 3.5
2017-Dec-08 23:29N 44°21' W 001°35'2 3.5
2017-Dec-08 23:00N 44°19' W 001°35'2 3.4
2017-Dec-08 22:30N 44°18' W 001°35'2 3.5
2017-Dec-08 22:00N 44°16' W 001°36'2 3.6
2017-Dec-08 21:30N 44°14' W 001°36'2 3.5
2017-Dec-08 21:00N 44°12' W 001°36'2 3.6
2017-Dec-08 20:29N 44°11' W 001°37'2 3.4
2017-Dec-08 20:00N 44°09' W 001°38'2 3.4
2017-Dec-08 19:30N 44°07' W 001°37'2 3.9
2017-Dec-08 19:00N 44°05' W 001°37'1 1.5
2017-Dec-08 18:30N 44°05' W 001°37'3 3.5
2017-Dec-08 17:35N 44°07' W 001°34'0 3.7
2017-Dec-08 17:30N 44°07' W 001°34'2 3.6
2017-Dec-08 17:00N 44°08' W 001°32'2 3.5
2017-Dec-08 16:30N 44°10' W 001°30'2 3.4
2017-Dec-08 16:00N 44°12' W 001°30'2 3.5
2017-Dec-08 15:29N 44°13' W 001°29'2 3.6
2017-Dec-08 14:59N 44°15' W 001°29'2 3.5
2017-Dec-08 14:30N 44°17' W 001°29'2 3.6
2017-Dec-08 14:00N 44°19' W 001°29'2 3.9
2017-Dec-08 13:30N 44°20' W 001°31'1 1.6
2017-Dec-08 13:00N 44°20' W 001°32'2 3.5
2017-Dec-08 12:28N 44°20' W 001°35'2 3.4
2017-Dec-08 12:00N 44°18' W 001°36'2 3.5
2017-Dec-08 11:30N 44°17' W 001°37'2 3.5
2017-Dec-08 10:59N 44°15' W 001°38'2 3.7
2017-Dec-08 10:30N 44°13' W 001°38'1 2.5
2017-Dec-08 10:00N 44°12' W 001°38'1 2.7
2017-Dec-08 09:30N 44°12' W 001°40'2 3.3
2017-Dec-08 08:59N 44°12' W 001°42'2 3.4
2017-Dec-08 08:30N 44°12' W 001°44'2 3.4
2017-Dec-08 08:00N 44°11' W 001°47'2 3.4
2017-Dec-08 07:30N 44°11' W 001°49'2 3.4
2017-Dec-08 07:00N 44°11' W 001°52'2 3.4
2017-Dec-08 06:30N 44°11' W 001°54'2 3.7
2017-Dec-08 06:00N 44°12' W 001°56'1 2.9
2017-Dec-08 05:30N 44°12' W 001°58'1 1.8
2017-Dec-08 05:00N 44°12' W 001°57'2 3.4
2017-Dec-08 04:30N 44°12' W 001°55'2 3.5
2017-Dec-08 03:59N 44°13' W 001°52'2 3.5
2017-Dec-08 03:30N 44°13' W 001°50'2 3.5
2017-Dec-08 03:00N 44°12' W 001°48'2 3.3
2017-Dec-08 02:30N 44°12' W 001°45'2 3.4
2017-Dec-08 02:00N 44°12' W 001°43'2 3.4
2017-Dec-08 01:30N 44°12' W 001°41'2 3.7
2017-Dec-08 01:00N 44°12' W 001°38'0 0.7
2017-Dec-08 00:30N 44°12' W 001°38'2 3.8
2017-Dec-08 00:00N 44°11' W 001°40'2 3.7
2017-Dec-07 23:30N 44°09' W 001°42'2 3.6
2017-Dec-07 23:00N 44°09' W 001°44'2 3.6
2017-Dec-07 22:30N 44°08' W 001°47'2 3.5
2017-Dec-07 22:00N 44°06' W 001°47'2 3.7
2017-Dec-07 21:30N 44°04' W 001°47'2 3.7
2017-Dec-07 21:00N 44°03' W 001°47'2 3.6
2017-Dec-07 20:30N 44°01' W 001°47'2 4.1
2017-Dec-07 20:00N 43°59' W 001°47'1 1.0
2017-Dec-07 19:30N 43°59' W 001°47'2 3.0
2017-Dec-07 19:00N 44°01' W 001°47'2 3.0
2017-Dec-07 18:30N 44°02' W 001°47'2 3.0
2017-Dec-07 18:00N 44°04' W 001°48'2 3.1
2017-Dec-07 17:30N 44°05' W 001°48'2 3.1
2017-Dec-07 17:00N 44°07' W 001°48'2 3.1
2017-Dec-07 16:30N 44°08' W 001°48'2 3.1
2017-Dec-07 16:00N 44°10' W 001°48'2 3.1
2017-Dec-07 15:30N 44°11' W 001°49'2 3.3
2017-Dec-07 15:00N 44°13' W 001°49'1 2.3
2017-Dec-07 14:30N 44°14' W 001°50'1 2.7
2017-Dec-07 14:00N 44°15' W 001°50'2 3.2
2017-Dec-07 13:30N 44°17' W 001°50'2 3.3
2017-Dec-07 13:00N 44°19' W 001°51'2 3.3
2017-Dec-07 12:30N 44°20' W 001°51'2 3.2
2017-Dec-07 12:00N 44°22' W 001°51'2 3.4
2017-Dec-07 11:30N 44°24' W 001°51'2 3.0
2017-Dec-07 11:00N 44°23' W 001°53'2 3.2
2017-Dec-07 10:30N 44°21' W 001°54'2 3.9
2017-Dec-07 10:00N 44°20' W 001°53'1 1.9
2017-Dec-07 09:30N 44°19' W 001°53'2 3.4
2017-Dec-07 09:00N 44°17' W 001°53'2 3.4
2017-Dec-07 08:30N 44°15' W 001°53'2 3.3
2017-Dec-07 08:00N 44°14' W 001°53'2 3.3
2017-Dec-07 07:30N 44°12' W 001°54'2 3.4
2017-Dec-07 07:00N 44°10' W 001°54'2 3.3
2017-Dec-07 06:30N 44°09' W 001°54'2 3.4
2017-Dec-07 06:00N 44°07' W 001°54'2 3.9
2017-Dec-07 05:30N 44°05' W 001°54'3 6.9
2017-Dec-07 05:00N 44°01' W 001°54'5 9.8
2017-Dec-07 04:30N 43°57' W 001°54'510.0
2017-Dec-07 04:00N 43°52' W 001°55'510.0
2017-Dec-07 03:30N 43°47' W 001°55'510.0
2017-Dec-07 03:00N 43°42' W 001°55'510.0
2017-Dec-07 02:30N 43°37' W 001°55'5 9.8
2017-Dec-07 02:00N 43°32' W 001°56'510.0
2017-Dec-07 01:30N 43°27' W 001°56'510.0
2017-Dec-07 01:00N 43°22' W 001°56'3 5.2
2017-Dec-07 00:30N 43°19' W 001°55'0 0.0
2017-Dec-07 00:00N 43°19' W 001°55'1 0.6
2017-Dec-06 23:11N 43°19' W 001°55'0 0.0
2017-Dec-06 21:25N 43°19' W 001°56'3 8.0
2017-Dec-06 21:00N 43°23' W 001°55'  
2017-Dec-02 09:38N 44°45' W 001°60'1 3.4
2017-Dec-02 09:27N 44°45' W 001°59'2 3.4
2017-Dec-02 08:51N 44°43' W 001°57'1 3.4
2017-Dec-02 08:30N 44°42' W 001°57'2 3.5
2017-Dec-02 07:52N 44°40' W 001°57'1 3.5
2017-Dec-02 07:30N 44°38' W 001°57'4 3.4
2017-Dec-02 06:29N 44°35' W 001°58'1 3.0
2017-Dec-02 06:00N 44°34' W 001°57'1 1.9
2017-Dec-02 05:30N 44°33' W 001°57'2 3.2
2017-Dec-02 04:59N 44°31' W 001°58'2 3.2
2017-Dec-02 04:30N 44°30' W 001°58'2 3.2
2017-Dec-02 04:00N 44°28' W 001°57'2 3.2
2017-Dec-02 03:30N 44°26' W 001°57'2 3.3
2017-Dec-02 03:00N 44°25' W 001°57'2 3.1
2017-Dec-02 02:17N 44°23' W 001°57'1 3.2
2017-Dec-02 01:57N 44°22' W 001°56'1 3.1
2017-Dec-02 01:30N 44°20' W 001°56'1 2.0
2017-Dec-02 01:00N 44°19' W 001°55'1 2.4
2017-Dec-02 00:30N 44°20' W 001°55'2 3.6
2017-Dec-01 23:58N 44°22' W 001°55'12 3.6
2017-Dec-01 20:44N 44°34' W 001°55'1 3.7
2017-Dec-01 20:30N 44°34' W 001°56'2 3.2
2017-Dec-01 20:00N 44°33' W 001°57'2 3.6
2017-Dec-01 19:22N 44°31' W 001°58'1 2.8
2017-Dec-01 19:00N 44°30' W 001°58'1 1.9
2017-Dec-01 18:30N 44°29' W 001°57'3 3.4
2017-Dec-01 17:33N 44°26' W 001°57'0 3.5
2017-Dec-01 17:30N 44°25' W 001°57'2 3.4
2017-Dec-01 16:57N 44°24' W 001°57'2 3.4
2017-Dec-01 16:24N 44°22' W 001°56'2 3.5
2017-Dec-01 15:53N 44°20' W 001°54'4 3.6
2017-Dec-01 14:39N 44°16' W 001°51'1 1.7
2017-Dec-01 14:15N 44°16' W 001°51'0 1.1
2017-Dec-01 14:00N 44°16' W 001°51'2 3.3
2017-Dec-01 13:30N 44°18' W 001°51'2 3.4
2017-Dec-01 12:53N 44°20' W 001°51'2 3.4
2017-Dec-01 12:26N 44°21' W 001°50'2 3.4
2017-Dec-01 11:58N 44°23' W 001°50'2 3.4
2017-Dec-01 11:29N 44°25' W 001°51'2 3.4
2017-Dec-01 11:00N 44°26' W 001°51'2 3.3
2017-Dec-01 10:30N 44°28' W 001°52'2 3.3
2017-Dec-01 09:51N 44°30' W 001°52'2 4.3
2017-Dec-01 09:26N 44°32' W 001°52'4 2.8
2017-Dec-01 08:07N 44°35' W 001°52'0 3.9
2017-Dec-01 08:00N 44°36' W 001°52'1 2.6
2017-Dec-01 07:30N 44°35' W 001°54'2 3.2
2017-Dec-01 07:00N 44°33' W 001°54'2 3.3
2017-Dec-01 06:31N 44°32' W 001°54'2 3.3
2017-Dec-01 05:59N 44°30' W 001°54'2 3.3
2017-Dec-01 05:31N 44°29' W 001°54'2 3.4
2017-Dec-01 05:00N 44°27' W 001°53'1 2.4
2017-Dec-01 04:29N 44°26' W 001°52'2 3.3
2017-Dec-01 04:00N 44°24' W 001°52'2 3.3
2017-Dec-01 03:29N 44°22' W 001°52'2 3.3
2017-Dec-01 02:59N 44°21' W 001°52'2 3.2
2017-Dec-01 02:31N 44°19' W 001°52'1 1.3
2017-Dec-01 02:00N 44°19' W 001°51'2 3.5
2017-Dec-01 01:29N 44°21' W 001°51'2 3.5
2017-Dec-01 00:54N 44°23' W 001°51'2 3.5
2017-Dec-01 00:25N 44°25' W 001°51'1 3.2
2017-Nov-30 23:59N 44°26' W 001°51'1 2.0
2017-Nov-30 23:30N 44°25' W 001°52'2 3.1
2017-Nov-30 22:59N 44°24' W 001°51'2 3.3
2017-Nov-30 22:25N 44°22' W 001°51'1 3.4
2017-Nov-30 22:00N 44°21' W 001°52'2 3.4
2017-Nov-30 21:27N 44°19' W 001°51'2 3.5
2017-Nov-30 20:59N 44°17' W 001°51'2 3.5
2017-Nov-30 20:30N 44°16' W 001°51'2 3.5
2017-Nov-30 20:00N 44°14' W 001°51'2 3.4
2017-Nov-30 19:30N 44°12' W 001°51'  

Dump ship's entire track history